Time;durP1;ratioP1;P1;durP2;ratioP2;P2;SDS_P1;SDS_P2;PMS_P1;PMS_P2;Temp;Humidity;BMP_temperature;BMP_pressure;BME280_temperature;BME280_humidity;BME280_pressure;Samples;Min_cycle;Max_cycle;Signal;HPM_P1;HPM_P2
2022/10/19 00:00:16;;;;;;;11.40;8.37;;;;;;;13.10;100.00;99091.13;5118600;28;20639;-64
2022/10/19 00:02:43;;;;;;;13.80;9.23;;;;;;;13.05;100.00;99094.06;5116830;28;20281;-64
2022/10/19 00:05:09;;;;;;;14.73;9.70;;;;;;;13.06;100.00;99103.72;5118343;28;20266;-64
2022/10/19 00:07:36;;;;;;;14.00;9.17;;;;;;;13.03;100.00;99101.25;5118264;28;20262;-67
2022/10/19 00:10:05;;;;;;;14.77;10.10;;;;;;;13.00;100.00;99111.22;5117111;28;20267;-65
2022/10/19 00:12:32;;;;;;;14.40;9.47;;;;;;;12.98;100.00;99105.16;5118316;28;20261;-67
2022/10/19 00:14:59;;;;;;;12.07;9.10;;;;;;;12.95;100.00;99115.97;5118264;28;20362;-64
2022/10/19 00:17:25;;;;;;;11.33;8.77;;;;;;;12.92;100.00;99113.47;5118185;28;20649;-64
2022/10/19 00:19:52;;;;;;;12.77;9.37;;;;;;;12.90;100.00;99104.78;5117309;28;20262;-66
2022/10/19 00:22:19;;;;;;;12.17;8.73;;;;;;;12.88;100.00;99111.97;5118183;28;20341;-67
2022/10/19 00:24:45;;;;;;;14.53;8.80;;;;;;;12.82;100.00;99107.03;5118307;28;20579;-64
2022/10/19 00:27:13;;;;;;;13.40;9.50;;;;;;;12.86;100.00;99103.25;5117658;28;20222;-64
2022/10/19 00:29:40;;;;;;;14.33;10.37;;;;;;;12.98;100.00;99107.81;5116996;28;20260;-64
2022/10/19 00:32:07;;;;;;;16.33;11.43;;;;;;;13.13;100.00;99104.19;5117810;28;20282;-64
2022/10/19 00:34:33;;;;;;;21.93;14.13;;;;;;;13.34;100.00;99094.84;5118165;28;20258;-64
2022/10/19 00:37:00;;;;;;;22.90;15.00;;;;;;;13.52;100.00;99096.31;5117649;28;20547;-64
2022/10/19 00:39:27;;;;;;;34.07;15.07;;;;;;;13.64;100.00;99092.84;5117766;28;20258;-64
2022/10/19 00:41:53;;;;;;;22.30;14.23;;;;;;;13.75;100.00;99090.31;5117794;28;20257;-64
2022/10/19 00:45:00;;;;;;;19.57;13.53;;;;;;;13.72;100.00;99090.50;5117773;28;20254;-64
2022/10/19 00:47:27;;;;;;;19.57;12.83;;;;;;;13.72;100.00;99090.50;5117158;28;20647;-65
2022/10/19 00:49:55;;;;;;;20.13;13.27;;;;;;;13.73;100.00;99076.25;5117627;28;20258;-65
2022/10/19 00:52:24;;;;;;;17.83;12.60;;;;;;;13.76;100.00;99086.69;5117470;28;20292;-64
2022/10/19 00:54:53;;;;;;;22.27;13.67;;;;;;;13.80;100.00;99081.06;5115792;28;20266;-66
2022/10/19 00:57:21;;;;;;;19.30;13.50;;;;;;;13.85;100.00;99084.28;5117795;28;20600;-66
2022/10/19 00:59:48;;;;;;;24.33;15.13;;;;;;;13.93;100.00;99089.09;5117502;28;20253;-66
2022/10/19 01:02:16;;;;;;;27.07;15.23;;;;;;;13.98;100.00;99089.59;5117652;28;20258;-66
2022/10/19 01:04:50;;;;;;;20.93;13.20;;;;;;;14.02;100.00;99089.31;5117492;28;20637;-66
2022/10/19 01:07:18;;;;;;;21.23;13.97;;;;;;;14.08;100.00;99088.03;5102995;28;20249;-64
2022/10/19 01:09:47;;;;;;;18.80;13.07;;;;;;;14.09;100.00;99089.72;5117492;28;20258;-66
2022/10/19 01:13:04;;;;;;;17.93;12.20;;;;;;;14.09;100.00;99079.09;5117339;28;20559;-66
2022/10/19 01:15:40;;;;;;;15.20;11.17;;;;;;;14.09;100.00;99084.41;5034791;28;20265;-67
2022/10/19 01:18:17;;;;;;;14.27;10.40;;;;;;;14.04;100.00;99076.75;5034770;28;20624;-66
2022/10/19 01:21:08;;;;;;;16.33;11.13;;;;;;;14.04;100.00;99086.53;5079492;28;20276;-66
2022/10/19 01:24:00;;;;;;;16.33;11.53;;;;;;;13.99;100.00;99078.88;5117260;28;20284;-66
2022/10/19 01:26:51;;;;;;;17.77;11.67;;;;;;;14.03;100.00;99068.88;5117180;28;20257;-66
2022/10/19 01:29:30;;;;;;;18.83;11.73;;;;;;;14.03;100.00;99079.50;5113949;28;20270;-66
2022/10/19 01:32:05;;;;;;;15.90;11.50;;;;;;;14.08;100.00;99072.09;5117103;28;20278;-66
2022/10/19 01:34:38;;;;;;;18.53;11.30;;;;;;;14.11;100.00;99069.22;5117066;28;20269;-66
2022/10/19 01:37:14;;;;;;;17.23;10.47;;;;;;;14.17;100.00;99066.16;5117091;28;20262;-66
2022/10/19 01:39:49;;;;;;;18.90;11.40;;;;;;;14.17;100.00;99060.84;5117480;28;20257;-65
2022/10/19 01:42:22;;;;;;;17.70;11.07;;;;;;;14.19;100.00;99061.59;5117275;28;20668;-66
2022/10/19 01:44:53;;;;;;;19.90;12.80;;;;;;;14.17;100.00;99066.97;5117413;28;20583;-65
2022/10/19 01:47:25;;;;;;;16.37;11.50;;;;;;;14.16;100.00;99054.66;5115507;28;20263;-66
2022/10/19 01:49:57;;;;;;;22.97;13.03;;;;;;;14.16;100.00;99056.44;5120112;28;20262;-66
2022/10/19 01:52:27;;;;;;;17.33;11.40;;;;;;;14.19;100.00;99053.63;5120756;28;20653;-65
2022/10/19 01:54:57;;;;;;;21.30;12.10;;;;;;;14.20;100.00;99050.88;5121037;28;20267;-65
2022/10/19 01:57:29;;;;;;;19.57;11.77;;;;;;;14.22;100.00;99042.75;5121246;28;20258;-65
2022/10/19 01:59:57;;;;;;;17.43;12.10;;;;;;;14.24;100.00;99046.19;5121017;28;20266;-65
2022/10/19 02:02:27;;;;;;;17.13;11.27;;;;;;;14.26;100.00;99037.16;5120850;28;20260;-65
2022/10/19 02:04:56;;;;;;;19.63;11.80;;;;;;;14.28;100.00;99037.00;5120769;28;20591;-65
2022/10/19 02:07:25;;;;;;;22.07;13.07;;;;;;;14.29;100.00;99034.25;5120833;28;20680;-65
2022/10/19 02:09:51;;;;;;;20.37;12.50;;;;;;;14.34;100.00;99031.28;5120844;28;20270;-65
2022/10/19 02:12:20;;;;;;;16.47;11.27;;;;;;;14.37;100.00;99041.72;5119093;28;20280;-65
2022/10/19 02:14:50;;;;;;;18.87;11.50;;;;;;;14.40;100.00;99034.38;5120624;28;20263;-65
2022/10/19 02:17:21;;;;;;;17.13;10.93;;;;;;;14.42;100.00;99042.25;5120628;28;20275;-65
2022/10/19 02:19:49;;;;;;;21.20;12.87;;;;;;;14.43;100.00;99038.63;5120639;28;20267;-65
2022/10/19 02:22:16;;;;;;;16.77;11.50;;;;;;;14.43;100.00;99035.97;5120530;28;20259;-65
2022/10/19 02:24:42;;;;;;;18.27;11.67;;;;;;;14.42;100.00;99037.75;5120449;28;20637;-65
2022/10/19 02:27:10;;;;;;;18.47;12.73;;;;;;;14.42;100.00;99032.44;5120476;28;20271;-65
2022/10/19 02:29:38;;;;;;;18.73;11.70;;;;;;;14.42;100.00;99023.63;5120310;28;20231;-65
2022/10/19 02:32:07;;;;;;;17.17;10.97;;;;;;;14.40;100.00;99033.50;5120131;28;20788;-65
2022/10/19 02:34:35;;;;;;;16.87;10.97;;;;;;;14.39;100.00;99023.81;5120128;28;20270;-65
2022/10/19 02:37:03;;;;;;;16.30;10.50;;;;;;;14.34;100.00;99021.50;5120204;28;20263;-65
2022/10/19 02:39:30;;;;;;;15.33;10.73;;;;;;;14.35;100.00;99022.34;5118261;28;20229;-65
2022/10/19 02:42:04;;;;;;;15.00;10.33;;;;;;;14.36;100.00;99029.38;5120040;28;20256;-66
2022/10/19 02:44:36;;;;;;;14.60;10.43;;;;;;;14.40;100.00;99026.38;5120175;28;20274;-65
2022/10/19 02:47:09;;;;;;;13.47;9.97;;;;;;;14.40;100.00;99021.06;5119976;28;20263;-65
2022/10/19 02:49:37;;;;;;;12.73;9.33;;;;;;;14.41;100.00;99016.56;5120167;28;20264;-65
2022/10/19 02:52:08;;;;;;;13.87;9.90;;;;;;;14.41;100.00;99021.91;5119751;28;20283;-65
2022/10/19 02:54:35;;;;;;;13.90;9.40;;;;;;;14.37;100.00;99015.13;5119861;28;20258;-64
2022/10/19 02:57:04;;;;;;;19.30;10.20;;;;;;;14.34;100.00;99017.97;5119877;28;20262;-65
2022/10/19 02:59:30;;;;;;;16.00;10.47;;;;;;;14.33;100.00;99016.28;5119504;28;20261;-65
2022/10/19 03:01:57;;;;;;;16.77;10.70;;;;;;;14.34;100.00;99016.19;5119855;28;20564;-64
2022/10/19 03:04:24;;;;;;;16.63;10.67;;;;;;;14.36;100.00;99016.06;5117976;28;20270;-65
2022/10/19 03:06:50;;;;;;;16.00;10.93;;;;;;;14.36;100.00;99013.41;5119454;28;20248;-65
2022/10/19 03:09:18;;;;;;;15.33;10.03;;;;;;;14.38;100.00;99017.66;5119644;28;20265;-65
2022/10/19 03:11:45;;;;;;;16.10;10.60;;;;;;;14.40;100.00;99004.25;5119607;28;20535;-64
2022/10/19 03:14:12;;;;;;;18.60;11.33;;;;;;;14.40;100.00;99004.25;5119566;28;20227;-64
2022/10/19 03:16:38;;;;;;;21.40;12.23;;;;;;;14.42;100.00;99002.34;5119367;28;20267;-64
2022/10/19 03:19:05;;;;;;;20.77;12.03;;;;;;;14.45;100.00;99012.75;5119396;28;20808;-64
2022/10/19 03:21:33;;;;;;;20.33;11.53;;;;;;;14.46;100.00;99003.81;5119364;28;20256;-64
2022/10/19 03:24:00;;;;;;;19.23;11.13;;;;;;;14.47;100.00;99016.13;5119306;28;20277;-65
2022/10/19 03:26:28;;;;;;;18.50;11.17;;;;;;;14.49;100.00;99006.28;5119211;28;20528;-65
2022/10/19 03:28:55;;;;;;;20.53;11.90;;;;;;;14.49;100.00;99006.28;5119308;28;20259;-65
2022/10/19 03:31:21;;;;;;;23.90;12.27;;;;;;;14.52;100.00;99008.69;5117361;28;20724;-65
2022/10/19 03:33:48;;;;;;;19.93;11.23;;;;;;;14.52;100.00;98998.91;5119240;28;20259;-65
2022/10/19 03:36:19;;;;;;;20.40;12.03;;;;;;;14.53;100.00;99005.06;5119166;28;20235;-65
2022/10/19 03:38:45;;;;;;;21.73;12.30;;;;;;;14.54;100.00;99001.47;5119071;28;20255;-65
2022/10/19 03:41:13;;;;;;;17.90;11.80;;;;;;;14.55;100.00;98995.19;5119001;28;20683;-66
2022/10/19 03:43:41;;;;;;;21.53;11.90;;;;;;;14.57;100.00;98998.59;5119037;28;20263;-65
2022/10/19 03:46:08;;;;;;;21.13;12.17;;;;;;;14.57;100.00;98996.78;5118914;28;20263;-65
2022/10/19 03:48:35;;;;;;;26.17;14.13;;;;;;;14.53;100.00;98997.94;5118797;28;20234;-65
2022/10/19 03:51:03;;;;;;;25.40;13.40;;;;;;;14.49;100.00;99000.94;5118749;28;20255;-65
2022/10/19 03:53:30;;;;;;;32.30;14.07;;;;;;;14.44;100.00;99006.59;5118770;28;20234;-65
2022/10/19 03:56:02;;;;;;;26.40;13.13;;;;;;;14.40;100.00;99002.44;5116841;28;20304;-65
2022/10/19 03:58:28;;;;;;;27.57;13.50;;;;;;;14.34;100.00;98997.56;5118687;27;20250;-64
2022/10/19 04:00:56;;;;;;;31.63;15.13;;;;;;;14.33;100.00;98992.34;5118666;28;20258;-65
2022/10/19 04:03:23;;;;;;;28.90;15.03;;;;;;;14.27;100.00;98998.97;5118499;28;20266;-65
2022/10/19 04:05:50;;;;;;;26.50;14.07;;;;;;;14.25;100.00;98994.69;5118478;28;20308;-65
2022/10/19 04:08:16;;;;;;;23.53;12.57;;;;;;;14.23;100.00;98996.63;5118510;28;20580;-65
2022/10/19 04:10:43;;;;;;;24.60;14.33;;;;;;;14.24;100.00;98998.31;5118103;27;20259;-66
2022/10/19 04:13:10;;;;;;;26.47;14.00;;;;;;;14.22;100.00;98994.91;5117952;28;20739;-65
2022/10/19 04:15:36;;;;;;;20.83;11.60;;;;;;;14.19;100.00;98995.13;5118258;28;20228;-65
2022/10/19 04:18:05;;;;;;;22.10;12.83;;;;;;;14.20;100.00;98991.50;5118415;28;20256;-65
2022/10/19 04:20:32;;;;;;;22.63;12.03;;;;;;;14.16;100.00;98990.84;5118293;28;20261;-65
2022/10/19 04:22:59;;;;;;;21.63;12.50;;;;;;;14.16;100.00;99001.47;5116371;28;20656;-64
2022/10/19 04:25:25;;;;;;;23.33;12.67;;;;;;;14.12;100.00;98991.16;5118086;28;20288;-65
2022/10/19 04:27:52;;;;;;;23.30;12.63;;;;;;;14.08;100.00;98993.19;5118229;28;20622;-66
2022/10/19 04:30:19;;;;;;;24.13;14.23;;;;;;;14.09;100.00;98996.69;5118263;28;20271;-65
2022/10/19 04:32:45;;;;;;;24.60;13.27;;;;;;;14.08;100.00;99002.97;5118000;28;20618;-65
2022/10/19 04:35:13;;;;;;;31.03;14.63;;;;;;;14.08;100.00;99002.97;5118078;28;20271;-65
2022/10/19 04:37:40;;;;;;;17.03;11.03;;;;;;;14.08;100.00;99008.28;5118343;28;20223;-65
2022/10/19 04:40:08;;;;;;;14.37;11.03;;;;;;;14.00;100.00;99010.63;5118007;28;20265;-65
2022/10/19 04:42:35;;;;;;;15.47;10.90;;;;;;;13.94;100.00;99005.72;5117912;28;20262;-65
2022/10/19 04:45:01;;;;;;;17.00;11.63;;;;;;;13.92;100.00;99012.94;5117863;28;20263;-65
2022/10/19 04:47:29;;;;;;;21.67;12.33;;;;;;;13.89;100.00;99013.16;5101000;28;20258;-65
2022/10/19 04:49:55;;;;;;;20.27;12.07;;;;;;;13.88;100.00;99012.31;5117541;28;20273;-66
2022/10/19 04:52:23;;;;;;;26.27;14.40;;;;;;;13.91;100.00;99006.78;5117856;28;20284;-66
2022/10/19 04:54:50;;;;;;;23.73;13.47;;;;;;;13.93;100.00;99004.03;5117551;28;20264;-66
2022/10/19 04:57:17;;;;;;;23.23;13.03;;;;;;;13.91;100.00;99001.47;5117480;28;20662;-66
2022/10/19 04:59:44;;;;;;;21.20;12.07;;;;;;;13.84;100.00;99007.31;5117816;28;20285;-66
2022/10/19 05:02:10;;;;;;;20.77;12.40;;;;;;;13.72;100.00;99001.03;5117632;28;20266;-66
2022/10/19 05:04:37;;;;;;;15.73;10.97;;;;;;;13.65;100.00;99001.56;5117702;28;20689;-65
2022/10/19 05:07:03;;;;;;;15.60;11.17;;;;;;;13.55;100.00;99000.47;5117690;28;20246;-65
2022/10/19 05:09:31;;;;;;;18.60;12.37;;;;;;;13.46;100.00;99003.75;5117559;28;20227;-65
2022/10/19 05:11:58;;;;;;;16.77;11.57;;;;;;;13.45;100.00;99002.88;5117646;28;20322;-65
2022/10/19 05:14:25;;;;;;;16.27;11.43;;;;;;;13.43;100.00;98998.63;5115880;28;20285;-65
2022/10/19 05:16:51;;;;;;;15.27;11.03;;;;;;;13.40;100.00;98999.72;5116509;28;20630;-65
2022/10/19 05:19:18;;;;;;;15.40;10.87;;;;;;;13.40;100.00;98993.53;5117758;28;20270;-65
2022/10/19 05:21:45;;;;;;;15.30;10.67;;;;;;;13.38;100.00;98998.13;5117310;28;20234;-65
2022/10/19 05:24:13;;;;;;;12.40;9.43;;;;;;;13.35;100.00;99000.94;5121117;28;20595;-65
2022/10/19 05:26:41;;;;;;;13.97;10.13;;;;;;;13.36;100.00;98992.91;5121576;28;20534;-65
2022/10/19 05:29:12;;;;;;;15.47;10.20;;;;;;;13.37;100.00;98993.72;5121492;28;20226;-65
2022/10/19 05:31:39;;;;;;;12.97;9.63;;;;;;;13.39;100.00;98997.97;5121372;28;20261;-65
2022/10/19 05:34:05;;;;;;;14.43;9.67;;;;;;;13.42;100.00;98995.13;5121254;28;20531;-65
2022/10/19 05:36:35;;;;;;;15.87;11.07;;;;;;;13.46;100.00;98987.81;5120472;28;20534;-65
2022/10/19 05:39:04;;;;;;;14.37;10.73;;;;;;;13.47;100.00;98989.50;5121391;28;20525;-65
2022/10/19 05:41:31;;;;;;;16.03;11.00;;;;;;;13.51;100.00;98996.34;5119620;28;20344;-65
2022/10/19 05:44:00;;;;;;;14.70;10.53;;;;;;;13.54;100.00;98994.31;5121215;28;20255;-65
2022/10/19 05:46:28;;;;;;;15.33;11.17;;;;;;;13.56;100.00;98989.75;5121172;28;20597;-65
2022/10/19 05:48:56;;;;;;;14.43;10.60;;;;;;;13.61;100.00;98992.06;5121075;28;20263;-65
2022/10/19 05:51:24;;;;;;;14.10;10.03;;;;;;;13.60;100.00;98982.41;5121109;28;20589;-65
2022/10/19 05:53:52;;;;;;;13.63;10.40;;;;;;;13.52;100.00;98990.06;5120930;28;20325;-65
2022/10/19 05:56:22;;;;;;;13.93;10.53;;;;;;;13.55;100.00;98997.81;5105330;28;20609;-64
2022/10/19 05:58:49;;;;;;;12.57;10.50;;;;;;;13.54;100.00;98999.63;5120869;28;20267;-65
2022/10/19 06:01:19;;;;;;;12.50;9.83;;;;;;;13.46;100.00;98998.44;5120827;28;20268;-64
2022/10/19 06:03:46;;;;;;;13.37;10.30;;;;;;;13.50;100.00;99005.25;5120808;28;20266;-65
2022/10/19 06:06:13;;;;;;;12.97;9.93;;;;;;;13.56;100.00;99010.16;5119059;28;20656;-65
2022/10/19 06:08:40;;;;;;;13.53;9.93;;;;;;;13.63;100.00;99008.78;5120994;28;20576;-65
2022/10/19 06:11:08;;;;;;;15.97;10.43;;;;;;;13.67;100.00;99004.94;5120750;28;20263;-65
2022/10/19 06:13:35;;;;;;;15.37;10.40;;;;;;;13.66;100.00;99017.41;5120543;28;20278;-66
2022/10/19 06:16:02;;;;;;;11.57;9.37;;;;;;;13.68;100.00;99017.31;5120645;28;20257;-65
2022/10/19 06:18:30;;;;;;;11.87;9.33;;;;;;;13.74;100.00;99014.22;5120623;28;20316;-65
2022/10/19 06:21:02;;;;;;;12.83;9.47;;;;;;;13.82;100.00;99007.41;5120519;28;20359;-65
2022/10/19 06:23:29;;;;;;;12.43;9.63;;;;;;;13.90;100.00;99009.56;5120286;28;20229;-65
2022/10/19 06:25:56;;;;;;;12.43;9.20;;;;;;;13.92;100.00;99012.94;5120361;28;20643;-66
2022/10/19 06:28:22;;;;;;;10.83;8.80;;;;;;;13.95;100.00;99018.06;5120472;28;20266;-66
2022/10/19 06:30:49;;;;;;;13.23;9.37;;;;;;;13.97;100.00;99021.44;5120370;28;20553;-66
2022/10/19 06:33:15;;;;;;;11.10;8.43;;;;;;;14.02;100.00;99024.66;5118347;28;20275;-65
2022/10/19 06:35:43;;;;;;;10.60;8.33;;;;;;;14.07;100.00;99022.53;5117753;28;20263;-65
2022/10/19 06:38:12;;;;;;;11.40;9.27;;;;;;;14.09;100.00;99026.78;5118837;28;20315;-64
2022/10/19 06:40:39;;;;;;;10.30;8.43;;;;;;;14.12;100.00;99025.72;5118808;28;20228;-64
2022/10/19 06:43:06;;;;;;;11.77;9.37;;;;;;;14.16;100.00;99024.53;5118740;28;20262;-64
2022/10/19 06:45:32;;;;;;;11.17;8.70;;;;;;;14.19;100.00;99027.88;5118821;28;20629;-65
2022/10/19 06:48:00;;;;;;;9.53;7.50;;;;;;;14.25;100.00;99026.59;5118729;28;20271;-64
2022/10/19 06:50:26;;;;;;;10.67;8.30;;;;;;;14.31;100.00;99031.50;5118561;28;20241;-66
2022/10/19 06:52:54;;;;;;;11.80;8.70;;;;;;;14.36;100.00;99029.38;5118382;28;20612;-64
2022/10/19 06:55:21;;;;;;;11.87;9.00;;;;;;;14.46;100.00;99031.28;5118529;28;20590;-65
2022/10/19 06:57:48;;;;;;;9.67;7.80;;;;;;;14.52;100.00;99029.97;5117758;28;20358;-65
2022/10/19 07:00:15;;;;;;;11.17;8.60;;;;;;;14.59;100.00;99031.22;5117659;28;20594;-65
2022/10/19 07:02:42;;;;;;;9.00;8.00;;;;;;;14.64;100.00;99029.97;5118439;28;20255;-64
2022/10/19 07:05:09;;;;;;;9.37;7.13;;;;;;;14.64;100.00;99029.09;5102788;28;20258;-65
2022/10/19 07:07:36;;;;;;;11.13;8.80;;;;;;;14.65;100.00;99036.13;5118279;28;20272;-64
2022/10/19 07:10:04;;;;;;;9.57;7.83;;;;;;;14.56;100.00;99028.81;5118253;28;20263;-65
2022/10/19 07:12:31;;;;;;;10.87;8.43;;;;;;;14.40;100.00;99026.38;5115798;28;20279;-65
2022/10/19 07:14:57;;;;;;;9.73;7.90;;;;;;;14.30;100.00;99024.50;5100562;28;20317;-65
2022/10/19 07:17:24;;;;;;;17.07;9.60;;;;;;;14.24;100.00;99019.59;5117056;28;20582;-66
2022/10/19 07:19:51;;;;;;;11.73;9.10;;;;;;;14.17;100.00;99028.94;5117382;28;20262;-66
2022/10/19 07:22:17;;;;;;;10.63;8.17;;;;;;;14.19;100.00;99021.72;5102528;28;20255;-67
2022/10/19 07:24:44;;;;;;;11.40;8.43;;;;;;;14.22;100.00;99021.50;5115433;28;20259;-68
2022/10/19 07:27:12;;;;;;;11.37;9.20;;;;;;;14.30;100.00;99024.50;5117103;28;20262;-66
2022/10/19 07:29:38;;;;;;;12.50;10.03;;;;;;;14.31;100.00;99031.50;5117329;28;20271;-66
2022/10/19 07:32:05;;;;;;;12.23;9.03;;;;;;;14.38;100.00;99035.44;5117851;28;20258;-67
2022/10/19 07:34:32;;;;;;;11.27;9.37;;;;;;;14.42;100.00;99035.09;5116846;28;20247;-65
2022/10/19 07:36:59;;;;;;;11.03;8.63;;;;;;;14.38;100.00;99038.09;5117759;28;20258;-67
2022/10/19 07:39:26;;;;;;;12.80;9.73;;;;;;;14.31;100.00;99031.50;5117897;28;20593;-67
2022/10/19 07:41:52;;;;;;;13.03;10.37;;;;;;;14.33;100.00;99029.56;5117686;28;20236;-67
2022/10/19 07:44:20;;;;;;;12.30;9.37;;;;;;;14.36;100.00;99037.34;5117696;28;20259;-67
2022/10/19 07:46:47;;;;;;;10.87;9.63;;;;;;;14.40;100.00;99031.69;5116521;28;20228;-68
2022/10/19 07:49:17;;;;;;;11.33;9.43;;;;;;;14.49;100.00;99031.03;5117533;28;20260;-67
2022/10/19 07:51:45;;;;;;;11.37;9.20;;;;;;;14.66;100.00;99043.16;5115832;28;20620;-65
2022/10/19 07:54:12;;;;;;;12.33;9.77;;;;;;;14.75;100.00;99039.84;5116311;28;20248;-65
2022/10/19 07:56:39;;;;;;;11.47;9.43;;;;;;;14.84;100.00;99033.88;5117326;28;20257;-67
2022/10/19 07:59:05;;;;;;;12.57;10.13;;;;;;;15.01;100.00;99038.78;5117171;28;20630;-66
2022/10/19 08:01:35;;;;;;;12.40;9.80;;;;;;;15.25;100.00;99035.22;5117052;28;20264;-66
2022/10/19 08:04:02;;;;;;;11.17;9.37;;;;;;;15.42;100.00;99039.31;5116230;28;20286;-66
2022/10/19 08:06:30;;;;;;;12.70;9.97;;;;;;;15.53;100.00;99036.69;5117107;28;20328;-66
2022/10/19 08:08:57;;;;;;;11.10;9.47;;;;;;;15.65;100.00;99041.13;5116960;28;20224;-66
2022/10/19 08:11:26;;;;;;;10.83;9.40;;;;;;;15.79;100.00;99043.56;5116918;28;20257;-66
2022/10/19 08:13:53;;;;;;;11.93;9.40;;;;;;;16.00;100.00;99041.97;5116029;28;20640;-66
2022/10/19 08:16:23;;;;;;;9.93;8.77;;;;;;;16.23;100.00;99041.88;5116797;28;20272;-66
2022/10/19 08:18:52;;;;;;;9.90;8.23;;;;;;;16.56;100.00;99041.91;5115166;28;20257;-66
2022/10/19 08:21:19;;;;;;;9.27;8.27;;;;;;;16.77;100.00;99041.06;5116705;28;20261;-66
2022/10/19 08:23:46;;;;;;;9.97;8.77;;;;;;;16.86;100.00;99036.81;5116628;28;20282;-66
2022/10/19 08:26:12;;;;;;;8.67;7.73;;;;;;;16.84;100.00;99033.44;5116660;28;20256;-66
2022/10/19 08:28:39;;;;;;;10.30;8.03;;;;;;;16.84;100.00;99036.09;5116499;28;20276;-66
2022/10/19 08:31:10;;;;;;;10.03;7.90;;;;;;;16.82;100.00;99028.19;5116205;28;20288;-66
2022/10/19 08:33:37;;;;;;;9.07;7.03;;;;;;;16.78;100.00;99033.91;5116561;28;20332;-66
2022/10/19 08:36:06;;;;;;;10.03;7.70;;;;;;;16.78;100.00;99026.78;5116430;28;20627;-65
2022/10/19 08:38:35;;;;;;;10.63;7.63;;;;;;;16.84;100.00;99025.41;5116273;28;20272;-66
2022/10/19 08:41:12;;;;;;;7.80;7.00;;;;;;;16.80;100.00;99024.81;5116428;28;20257;-66
2022/10/19 08:43:48;;;;;;;9.47;7.67;;;;;;;16.81;100.00;99031.84;5100559;28;20260;-67
2022/10/19 08:46:23;;;;;;;7.83;6.97;;;;;;;16.84;100.00;99026.28;5116530;28;20260;-66
2022/10/19 08:48:52;;;;;;;8.13;7.00;;;;;;;16.83;100.00;99031.72;5116481;28;20287;-66
2022/10/19 08:51:20;;;;;;;9.40;7.63;;;;;;;16.78;100.00;99037.44;5116389;28;20272;-66
2022/10/19 08:53:56;;;;;;;8.23;7.10;;;;;;;16.70;100.00;99034.53;5116164;28;20280;-67
2022/10/19 08:56:29;;;;;;;8.37;7.37;;;;;;;16.67;100.00;99036.59;5116162;28;20255;-67
2022/10/19 08:59:06;;;;;;;9.50;6.50;;;;;;;16.66;100.00;99038.44;5115582;28;20281;-67
2022/10/19 09:01:41;;;;;;;7.97;7.17;;;;;;;16.65;100.00;99036.69;5115928;28;20265;-67
2022/10/19 09:04:17;;;;;;;8.07;7.27;;;;;;;16.66;100.00;99033.09;5114497;28;20286;-66
2022/10/19 09:06:56;;;;;;;7.83;6.93;;;;;;;16.67;100.00;99040.13;5115694;28;20611;-66
2022/10/19 09:09:24;;;;;;;8.70;7.13;;;;;;;16.73;100.00;99042.31;5114691;28;20228;-67
2022/10/19 09:11:55;;;;;;;9.97;7.50;;;;;;;16.79;100.00;99028.47;5114031;28;20267;-66
2022/10/19 09:14:30;;;;;;;8.57;6.23;;;;;;;16.86;100.00;99029.66;5115549;28;20280;-68
2022/10/19 09:17:01;;;;;;;7.40;6.60;;;;;;;16.92;100.00;99015.81;5100674;28;20221;-67
2022/10/19 09:19:30;;;;;;;7.63;6.07;;;;;;;16.91;100.00;99016.78;5115882;28;20268;-67
2022/10/19 09:22:01;;;;;;;5.80;5.20;;;;;;;16.91;100.00;99011.44;5116010;28;20221;-65
2022/10/19 09:24:32;;;;;;;7.70;6.30;;;;;;;16.94;100.00;99005.84;5115935;28;20282;-66
2022/10/19 09:27:00;;;;;;;7.73;6.00;;;;;;;17.02;100.00;99002.56;5115880;28;20257;-67
2022/10/19 09:29:35;;;;;;;6.13;5.33;;;;;;;16.98;100.00;99009.97;5115908;28;20628;-67
2022/10/19 09:32:06;;;;;;;6.57;5.30;;;;;;;17.01;100.00;99012.38;5115847;28;20504;-66
2022/10/19 09:34:36;;;;;;;6.10;4.70;;;;;;;17.12;100.00;99014.22;5115381;28;20288;-67
2022/10/19 09:37:04;;;;;;;5.20;4.30;;;;;;;17.22;100.00;99007.13;5114061;28;20455;-66
2022/10/19 09:39:31;;;;;;;4.80;3.97;;;;;;;17.32;100.00;99006.22;5115809;28;20264;-66
2022/10/19 09:42:04;;;;;;;5.73;4.27;;;;;;;17.44;100.00;99007.09;5115662;28;20229;-66
2022/10/19 09:44:32;;;;;;;4.40;3.60;;;;;;;17.50;100.00;99010.06;5100707;28;20253;-66
2022/10/19 09:47:12;;;;;;;4.53;4.00;;;;;;;17.54;100.00;98997.31;5115802;28;20273;-66
2022/10/19 09:49:41;;;;;;;4.33;3.80;;;;;;;17.51;100.00;99001.09;5115642;28;20590;-66
2022/10/19 09:52:29;;;;;;;3.57;2.87;;;;;;;17.44;100.00;98999.91;5115467;28;20222;-66
2022/10/19 09:55:01;;;;;;;4.93;4.00;;;;;;;17.40;100.00;98997.63;5105389;28;20280;-66
2022/10/19 09:57:28;;;;;;;3.43;3.13;;;;;;;17.30;100.00;99008.19;5115060;28;20588;-67
2022/10/19 09:59:55;;;;;;;4.03;3.27;;;;;;;17.23;100.00;99007.00;5115436;28;20253;-66
2022/10/19 10:02:28;;;;;;;3.83;3.13;;;;;;;17.17;100.00;99007.50;5115400;28;20258;-66
2022/10/19 10:04:56;;;;;;;3.60;2.93;;;;;;;17.14;100.00;99001.56;5113852;28;20222;-65
2022/10/19 10:07:29;;;;;;;3.10;2.80;;;;;;;17.17;100.00;99002.16;5115309;28;20280;-65
2022/10/19 10:09:56;;;;;;;2.77;2.43;;;;;;;17.27;100.00;99002.25;5116297;28;20638;-65
2022/10/19 10:12:23;;;;;;;3.23;2.77;;;;;;;17.39;100.00;98999.47;5119438;28;20313;-65
2022/10/19 10:14:51;;;;;;;3.37;2.60;;;;;;;17.46;100.00;98992.63;5119281;28;20277;-66
2022/10/19 10:17:20;;;;;;;3.20;2.90;;;;;;;17.55;100.00;98986.50;5119222;28;20591;-66
2022/10/19 10:20:01;;;;;;;3.60;2.70;;;;;;;17.61;100.00;98991.31;5119248;28;20254;-67
2022/10/19 10:22:31;;;;;;;2.63;2.30;;;;;;;17.62;100.00;98986.84;5119218;28;20638;-66
2022/10/19 10:24:58;;;;;;;2.60;2.40;;;;;;;17.67;100.00;98998.81;5119052;28;20611;-66
2022/10/19 10:27:31;;;;;;;2.53;2.33;;;;;;;17.71;100.00;98984.22;5118804;28;20268;-66
2022/10/19 10:29:58;;;;;;;2.77;2.50;;;;;;;17.76;100.00;98987.38;5117299;28;20270;-66
2022/10/19 10:32:26;;;;;;;2.27;2.07;;;;;;;17.74;99.54;98980.44;5119143;28;20246;-68
2022/10/19 10:34:59;;;;;;;2.23;2.03;;;;;;;17.76;100.00;98982.03;5118857;28;20246;-67
2022/10/19 10:37:34;;;;;;;2.83;2.53;;;;;;;17.76;100.00;98986.50;5117959;28;20260;-65
2022/10/19 10:40:01;;;;;;;2.57;2.37;;;;;;;17.84;100.00;98986.69;5118847;28;20260;-66
2022/10/19 10:42:30;;;;;;;2.20;2.00;;;;;;;17.89;100.00;98969.28;5118777;28;20222;-66
2022/10/19 10:44:58;;;;;;;4.03;2.67;;;;;;;18.03;99.82;98960.06;5118646;28;20548;-65
2022/10/19 10:47:26;;;;;;;3.00;2.47;;;;;;;18.13;98.85;98956.47;5118486;28;20663;-66
2022/10/19 10:49:56;;;;;;;3.37;2.30;;;;;;;18.21;98.72;98959.34;5118533;28;20230;-66
2022/10/19 10:52:26;;;;;;;3.33;2.33;;;;;;;18.31;98.16;98960.28;5118726;28;20236;-66
2022/10/19 10:55:16;;;;;;;1.97;1.87;;;;;;;18.45;97.86;98951.00;5118284;28;20291;-66
2022/10/19 10:57:46;;;;;;;2.87;2.20;;;;;;;18.65;96.49;98942.91;5116712;28;20253;-66
2022/10/19 11:00:16;;;;;;;2.47;2.27;;;;;;;18.71;94.37;98936.19;5118437;28;20347;-66
2022/10/19 11:02:51;;;;;;;2.60;2.40;;;;;;;18.65;93.55;98932.19;5118315;28;20261;-65
2022/10/19 11:05:21;;;;;;;2.67;2.03;;;;;;;18.55;94.87;98935.84;5118182;28;20260;-66
2022/10/19 11:07:52;;;;;;;2.50;2.30;;;;;;;18.45;95.66;98935.81;5118278;28;20236;-66
2022/10/19 11:10:28;;;;;;;2.40;2.20;;;;;;;18.35;96.22;98940.25;5118276;28;20257;-66
2022/10/19 11:13:04;;;;;;;2.30;2.10;;;;;;;18.30;95.96;98937.09;5117672;28;20257;-66
2022/10/19 11:15:35;;;;;;;2.33;2.13;;;;;;;18.36;97.34;98936.59;5118202;28;20277;-65
2022/10/19 11:18:14;;;;;;;2.40;1.97;;;;;;;18.42;97.48;98935.22;5118190;28;20257;-66
2022/10/19 11:24:04;;;;;;;3.47;2.60;;;;;;;18.48;95.38;98918.63;5093576;28;20324;-66
2022/10/19 11:26:47;;;;;;;4.43;2.70;;;;;;;18.51;94.53;98908.50;5095184;28;20298;-66
2022/10/19 11:29:27;;;;;;;3.07;2.73;;;;;;;18.59;95.10;98905.13;5095002;28;20278;-67